createdAt,value
2019-03-22T00:00:07.355Z,13.53
2019-03-22T00:05:01.953Z,17.73
2019-03-22T00:09:56.551Z,14.03
2019-03-22T00:14:51.180Z,22.50
2019-03-22T00:19:45.760Z,15.13
2019-03-22T00:24:40.352Z,18.63
2019-03-22T00:29:34.918Z,16.97
2019-03-22T00:34:29.535Z,21.07
2019-03-22T00:39:24.099Z,12.87
2019-03-22T00:44:18.702Z,16.90
2019-03-22T00:49:13.289Z,16.60
2019-03-22T00:54:07.870Z,15.87
2019-03-22T00:59:02.433Z,14.40
2019-03-22T01:03:57.030Z,15.10
2019-03-22T01:08:51.617Z,17.10
2019-03-22T01:13:46.257Z,15.40
2019-03-22T01:18:40.901Z,18.60
2019-03-22T01:23:35.496Z,14.00
2019-03-22T01:28:30.071Z,11.77
2019-03-22T01:33:24.682Z,12.87
2019-03-22T01:38:19.254Z,17.83
2019-03-22T01:43:13.837Z,13.73
2019-03-22T01:48:08.479Z,15.67
2019-03-22T01:53:03.226Z,16.67
2019-03-22T01:57:57.806Z,11.97
2019-03-22T02:02:52.426Z,12.80
2019-03-22T02:07:47.070Z,12.03
2019-03-22T02:12:41.795Z,11.23
2019-03-22T02:17:36.398Z,12.60
2019-03-22T02:22:30.972Z,12.40
2019-03-22T02:27:25.556Z,12.10
2019-03-22T02:32:20.198Z,10.80
2019-03-22T02:37:14.769Z,14.30
2019-03-22T02:42:09.356Z,14.30
2019-03-22T02:47:04.005Z,16.03
2019-03-22T02:51:58.675Z,11.30
2019-03-22T02:56:53.274Z,11.60
2019-03-22T03:01:47.926Z,11.03
2019-03-22T03:06:42.575Z,13.37
2019-03-22T03:11:37.176Z,14.80
2019-03-22T03:16:31.747Z,15.80
2019-03-22T03:21:26.351Z,15.57
2019-03-22T03:26:20.938Z,15.23
2019-03-22T03:31:15.555Z,13.93
2019-03-22T03:36:10.134Z,12.87
2019-03-22T03:41:04.801Z,13.23
2019-03-22T03:45:59.456Z,12.73
2019-03-22T03:50:54.068Z,12.50
2019-03-22T03:55:48.652Z,15.30
2019-03-22T04:00:43.339Z,12.77
2019-03-22T04:05:37.970Z,13.00
2019-03-22T04:10:32.625Z,13.60
2019-03-22T04:15:27.193Z,14.93
2019-03-22T04:20:21.810Z,11.97
2019-03-22T04:25:16.556Z,14.83
2019-03-22T04:30:11.687Z,14.60
2019-03-22T04:35:08.481Z,13.77
2019-03-22T04:40:03.267Z,15.03
2019-03-22T04:44:57.838Z,17.90
2019-03-22T04:49:55.666Z,13.23
2019-03-22T04:54:54.101Z,17.47
2019-03-22T04:59:50.937Z,17.30
2019-03-22T05:04:48.926Z,14.33
2019-03-22T05:09:45.082Z,14.17
2019-03-22T05:14:43.148Z,16.37
2019-03-22T05:19:42.397Z,15.73
2019-03-22T05:24:39.846Z,15.30
2019-03-22T05:29:39.003Z,15.27
2019-03-22T05:34:33.675Z,16.80
2019-03-22T05:39:28.346Z,16.00
2019-03-22T05:44:22.934Z,16.90
2019-03-22T05:49:17.548Z,15.83
2019-03-22T05:54:12.110Z,14.80
2019-03-22T05:59:06.778Z,16.07
2019-03-22T06:04:01.396Z,15.30
2019-03-22T06:08:55.999Z,14.73
2019-03-22T06:13:50.654Z,17.77
2019-03-22T06:18:45.389Z,19.67
2019-03-22T06:23:39.974Z,18.90
2019-03-22T06:28:34.591Z,23.97
2019-03-22T06:33:39.273Z,22.00
2019-03-22T06:38:34.048Z,24.97
2019-03-22T06:43:28.799Z,40.93
2019-03-22T06:48:23.407Z,30.53
2019-03-22T06:53:19.758Z,20.77
2019-03-22T06:58:14.356Z,19.13
2019-03-22T07:03:09.451Z,30.27
2019-03-22T07:08:04.124Z,32.83
2019-03-22T07:12:58.722Z,29.83
2019-03-22T07:17:53.333Z,22.77
2019-03-22T07:22:47.953Z,25.50
2019-03-22T07:27:44.237Z,23.07
2019-03-22T07:32:38.828Z,20.27
2019-03-22T07:37:33.430Z,16.03
2019-03-22T07:42:29.672Z,16.77
2019-03-22T07:47:25.767Z,13.90
2019-03-22T07:52:20.403Z,16.57
2019-03-22T07:57:15.032Z,17.30
2019-03-22T08:02:09.712Z,16.47
2019-03-22T08:07:04.427Z,18.43
2019-03-22T08:11:59.076Z,16.43
2019-03-22T08:16:53.814Z,14.53
2019-03-22T08:21:48.541Z,17.60
2019-03-22T08:26:43.241Z,19.50
2019-03-22T08:31:38.967Z,17.10
2019-03-22T08:36:33.681Z,18.30
2019-03-22T08:41:28.589Z,14.33
2019-03-22T08:46:23.301Z,15.47
2019-03-22T08:51:29.857Z,17.10
2019-03-22T08:56:24.717Z,15.90
2019-03-22T09:01:29.509Z,14.17
2019-03-22T09:06:32.509Z,17.87
2019-03-22T09:11:27.945Z,14.30
2019-03-22T09:16:23.554Z,17.73
2019-03-22T09:21:20.348Z,18.03
2019-03-22T09:26:15.061Z,18.83
2019-03-22T09:31:10.621Z,15.73
2019-03-22T09:36:06.342Z,19.17
2019-03-22T09:41:02.493Z,27.63
2019-03-22T09:45:57.249Z,19.53
2019-03-22T09:50:53.828Z,21.47
2019-03-22T09:55:48.579Z,21.17
2019-03-22T10:00:44.300Z,19.23
2019-03-22T10:05:39.955Z,17.37
2019-03-22T10:10:34.609Z,16.23
2019-03-22T10:15:29.464Z,16.67
2019-03-22T10:20:24.272Z,16.83
2019-03-22T10:25:18.876Z,19.00
2019-03-22T10:30:16.855Z,19.50
2019-03-22T10:35:25.040Z,20.57
2019-03-22T10:40:08.844Z,19.83
2019-03-22T10:45:04.715Z,17.57
2019-03-22T10:49:59.490Z,18.80
2019-03-22T10:54:54.596Z,18.20
2019-03-22T10:59:49.360Z,20.10
2019-03-22T11:04:44.236Z,20.43
2019-03-22T11:09:38.873Z,21.50
2019-03-22T11:14:33.523Z,19.70
2019-03-22T11:19:28.224Z,18.33
2019-03-22T11:24:23.627Z,17.23
2019-03-22T11:29:18.290Z,18.63
2019-03-22T11:34:12.927Z,22.27
2019-03-22T11:39:15.859Z,19.60
2019-03-22T11:44:09.017Z,22.33
2019-03-22T11:49:03.798Z,22.60
2019-03-22T11:53:58.448Z,21.20
2019-03-22T11:58:53.050Z,21.90
2019-03-22T12:09:10.930Z,21.30
2019-03-22T12:14:06.687Z,22.20
2019-03-22T12:19:01.423Z,22.77
2019-03-22T12:23:56.378Z,27.63
2019-03-22T12:28:51.079Z,24.20
2019-03-22T12:33:45.834Z,28.90
2019-03-22T12:38:45.064Z,25.37
2019-03-22T12:43:46.749Z,24.97
2019-03-22T12:48:44.044Z,27.93
2019-03-22T12:53:42.321Z,24.37
2019-03-22T12:58:37.281Z,23.90
2019-03-22T13:03:32.347Z,25.33
2019-03-22T13:08:28.103Z,25.80
2019-03-22T13:13:22.739Z,28.60
2019-03-22T13:18:17.377Z,25.83
2019-03-22T13:23:12.151Z,26.63
2019-03-22T13:28:06.836Z,27.80
2019-03-22T13:33:01.545Z,28.47
2019-03-22T13:37:56.197Z,28.60
2019-03-22T13:42:50.785Z,28.97
2019-03-22T13:47:45.518Z,30.13
2019-03-22T13:52:40.325Z,29.17
2019-03-22T13:57:38.795Z,30.27
2019-03-22T14:02:33.570Z,32.70
2019-03-22T14:07:28.234Z,31.37
2019-03-22T14:12:22.860Z,30.43
2019-03-22T14:17:17.754Z,34.60
2019-03-22T14:22:12.396Z,44.30
2019-03-22T14:27:07.110Z,32.87
2019-03-22T14:32:01.725Z,33.07
2019-03-22T14:36:56.461Z,34.17
2019-03-22T14:41:51.111Z,35.27
2019-03-22T14:46:45.811Z,34.47
2019-03-22T14:51:40.462Z,29.87
2019-03-22T14:56:35.188Z,35.00
2019-03-22T15:01:29.855Z,32.00
2019-03-22T15:06:24.505Z,34.10
2019-03-22T15:11:19.305Z,32.70
2019-03-22T15:16:22.828Z,33.33
2019-03-22T15:21:32.279Z,33.07
2019-03-22T15:26:34.401Z,33.77
2019-03-22T15:31:28.970Z,35.13
2019-03-22T15:36:40.348Z,37.77
2019-03-22T15:41:35.287Z,38.53
2019-03-22T15:46:30.023Z,34.27
2019-03-22T15:51:24.632Z,33.67
2019-03-22T15:56:19.260Z,33.40
2019-03-22T16:01:13.874Z,37.13
2019-03-22T16:06:08.517Z,35.40
2019-03-22T16:11:03.193Z,34.77
2019-03-22T16:15:57.810Z,35.97
2019-03-22T16:20:59.871Z,37.30
2019-03-22T16:25:48.811Z,35.80
2019-03-22T16:30:43.563Z,38.40
2019-03-22T16:35:38.188Z,40.30
2019-03-22T16:40:32.807Z,37.73
2019-03-22T16:45:37.539Z,39.30
2019-03-22T16:50:32.201Z,36.57
2019-03-22T16:55:26.831Z,37.20
2019-03-22T17:00:21.918Z,39.37
2019-03-22T17:05:16.664Z,34.87
2019-03-22T17:10:11.760Z,37.67
2019-03-22T17:15:08.296Z,46.20
2019-03-22T17:20:02.981Z,41.17
2019-03-22T17:24:58.399Z,38.30
2019-03-22T17:29:53.270Z,42.53
2019-03-22T17:34:47.879Z,47.87
2019-03-22T17:39:42.511Z,37.63
2019-03-22T17:44:37.171Z,43.20
2019-03-22T17:49:31.794Z,43.63
2019-03-22T17:54:26.400Z,46.63
2019-03-22T17:59:21.010Z,50.00
2019-03-22T18:04:23.849Z,46.60
2019-03-22T18:09:11.943Z,45.87
2019-03-22T18:14:06.609Z,46.93
2019-03-22T18:19:01.238Z,49.03
2019-03-22T18:23:55.906Z,50.70
2019-03-22T18:28:50.524Z,49.23
2019-03-22T18:33:45.146Z,54.20
2019-03-22T18:38:39.765Z,47.90
2019-03-22T18:43:34.370Z,45.53
2019-03-22T18:48:29.059Z,43.83
2019-03-22T18:53:23.692Z,46.50
2019-03-22T18:58:18.308Z,43.07
2019-03-22T19:03:12.974Z,43.53
2019-03-22T19:08:07.583Z,42.73
2019-03-22T19:13:02.225Z,44.33
2019-03-22T19:17:56.856Z,46.83
2019-03-22T19:22:51.458Z,46.03
2019-03-22T19:27:46.071Z,44.40
2019-03-22T19:32:40.747Z,46.40
2019-03-22T19:37:35.428Z,45.33
2019-03-22T19:42:30.025Z,46.87
2019-03-22T19:47:24.631Z,50.07
2019-03-22T19:52:19.260Z,48.10
2019-03-22T19:57:13.877Z,50.00
2019-03-22T20:02:08.464Z,49.10
2019-03-22T20:07:03.075Z,45.37
2019-03-22T20:11:57.682Z,47.73
2019-03-22T20:16:52.360Z,42.03
2019-03-22T20:21:46.952Z,44.27
2019-03-22T20:26:41.569Z,47.83
2019-03-22T20:31:36.164Z,44.57
2019-03-22T20:36:30.788Z,45.83
2019-03-22T20:41:25.379Z,42.23
2019-03-22T20:46:20.851Z,45.33
2019-03-22T20:51:15.472Z,45.13
2019-03-22T20:56:10.073Z,45.83
2019-03-22T21:01:04.661Z,46.77
2019-03-22T21:05:59.277Z,48.47
2019-03-22T21:10:53.876Z,47.40
2019-03-22T21:15:48.552Z,50.87
2019-03-22T21:20:43.142Z,42.97
2019-03-22T21:25:37.758Z,55.60
2019-03-22T21:30:32.345Z,47.67
2019-03-22T21:35:36.666Z,45.87
2019-03-22T21:40:23.260Z,41.57
2019-03-22T21:45:17.933Z,42.50
2019-03-22T21:50:12.685Z,43.03
2019-03-22T21:55:09.836Z,46.03
2019-03-22T22:00:12.880Z,45.33
2019-03-22T22:05:08.777Z,43.70
2019-03-22T22:10:04.732Z,46.87
2019-03-22T22:14:59.339Z,42.20
2019-03-22T22:19:53.937Z,40.90
2019-03-22T22:24:48.542Z,43.00
2019-03-22T22:29:43.138Z,48.23
2019-03-22T22:34:37.754Z,44.77
2019-03-22T22:39:32.368Z,45.10
2019-03-22T22:44:26.972Z,45.93
2019-03-22T22:49:21.655Z,48.20
2019-03-22T22:54:16.322Z,45.33
2019-03-22T22:59:10.902Z,50.13
2019-03-22T23:04:05.576Z,46.20
2019-03-22T23:09:00.169Z,42.43
2019-03-22T23:13:54.761Z,41.20
2019-03-22T23:18:49.370Z,50.53
2019-03-22T23:23:43.963Z,45.07
2019-03-22T23:28:38.555Z,43.83
2019-03-22T23:33:33.167Z,44.77
2019-03-22T23:38:27.775Z,42.07
2019-03-22T23:43:22.381Z,44.90
2019-03-22T23:48:16.976Z,45.03
2019-03-22T23:53:11.590Z,41.33
2019-03-22T23:58:06.246Z,45.33
